Time;durP1;ratioP1;P1;durP2;ratioP2;P2;SDS_P1;SDS_P2;PMS_P1;PMS_P2;Temp;Humidity;BMP_temperature;BMP_pressure;BME280_temperature;BME280_humidity;BME280_pressure;Samples;Min_cycle;Max_cycle;Signal;HPM_P1;HPM_P2
2023/06/19 00:01:15;;;;;;;4.78;4.15;;;21.30;98.50;;;;;;5071966;28;20017;-36
2023/06/19 00:03:41;;;;;;;6.05;4.30;;;21.30;98.40;;;;;;5071767;28;20027;-43
2023/06/19 00:06:07;;;;;;;6.97;4.20;;;21.30;98.50;;;;;;5071569;28;20055;-36
2023/06/19 00:08:33;;;;;;;4.50;4.10;;;21.30;98.40;;;;;;5071631;28;20103;-38
2023/06/19 00:10:58;;;;;;;5.57;4.50;;;21.30;98.50;;;;;;5071440;28;20109;-41
2023/06/19 00:13:24;;;;;;;5.10;4.50;;;21.30;98.50;;;;;;5071299;28;20399;-40
2023/06/19 00:15:50;;;;;;;4.75;4.25;;;21.30;98.50;;;;;;5072239;28;20023;-39
2023/06/19 00:18:17;;;;;;;5.10;4.35;;;21.30;98.50;;;;;;5071966;28;20050;-35
2023/06/19 00:20:45;;;;;;;5.55;4.70;;;21.30;98.50;;;;;;5071749;28;20032;-37
2023/06/19 00:23:13;;;;;;;4.82;3.80;;;21.30;98.50;;;;;;5071392;28;20490;-37
2023/06/19 00:25:41;;;;;;;5.20;4.53;;;21.30;98.50;;;;;;5071203;28;20048;-36
2023/06/19 00:28:11;;;;;;;4.43;3.92;;;21.30;98.50;;;;;;5071175;28;20025;-36
2023/06/19 00:30:37;;;;;;;5.30;4.45;;;21.30;98.50;;;;;;5071013;28;20020;-36
2023/06/19 00:33:03;;;;;;;4.70;4.28;;;21.20;98.50;;;;;;5071344;28;20064;-36
2023/06/19 00:35:29;;;;;;;5.05;4.30;;;21.20;98.50;;;;;;5071396;28;20048;-35
2023/06/19 00:37:54;;;;;;;4.63;4.20;;;21.20;98.50;;;;;;5071418;28;20392;-43
2023/06/19 00:40:27;;;;;;;4.70;4.22;;;21.30;98.60;;;;;;5070931;28;20052;-37
2023/06/19 00:42:53;;;;;;;4.70;4.18;;;21.20;98.60;;;;;;5071168;28;20050;-37
2023/06/19 00:45:19;;;;;;;4.82;4.25;;;21.20;98.60;;;;;;5071237;28;20433;-38
2023/06/19 00:47:45;;;;;;;4.72;4.10;;;21.20;98.60;;;;;;5071052;28;20033;-37
2023/06/19 00:50:11;;;;;;;6.88;4.80;;;21.20;98.60;;;;;;5071086;28;20068;-39
2023/06/19 00:52:37;;;;;;;5.78;4.68;;;21.30;98.60;;;;;;5070736;28;20025;-38
2023/06/19 00:55:05;;;;;;;5.07;4.53;;;21.20;98.60;;;;;;5070938;28;20017;-35
2023/06/19 00:57:31;;;;;;;4.93;4.25;;;21.20;98.60;;;;;;5071304;28;20025;-36
2023/06/19 00:59:58;;;;;;;5.47;4.93;;;21.20;98.70;;;;;;5070796;28;20086;-36
2023/06/19 01:02:25;;;;;;;5.88;4.30;;;21.20;98.70;;;;;;5071250;28;20095;-36
2023/06/19 01:04:52;;;;;;;6.72;4.65;;;21.20;98.70;;;;;;5071022;28;20032;-39
2023/06/19 01:07:27;;;;;;;4.95;4.07;;;21.20;98.70;;;;;;5070518;28;20028;-40
2023/06/19 01:09:59;;;;;;;4.35;3.78;;;21.20;98.70;;;;;;5070612;28;20033;-38
2023/06/19 01:12:31;;;;;;;4.90;4.20;;;21.20;98.60;;;;;;5070727;28;20028;-39
2023/06/19 01:15:03;;;;;;;4.75;4.22;;;21.20;98.60;;;;;;5071074;28;20497;-41
2023/06/19 01:17:29;;;;;;;5.28;4.78;;;21.20;98.60;;;;;;5070663;28;20020;-38
2023/06/19 01:19:56;;;;;;;5.75;4.65;;;21.20;98.70;;;;;;5070932;28;20052;-43
2023/06/19 01:22:30;;;;;;;5.10;4.25;;;21.20;98.70;;;;;;5070587;28;20107;-40
2023/06/19 01:24:55;;;;;;;5.88;4.72;;;21.20;98.70;;;;;;5070688;28;20021;-37
2023/06/19 01:27:23;;;;;;;5.40;4.60;;;21.20;98.70;;;;;;5070555;28;20134;-36
2023/06/19 01:29:49;;;;;;;6.18;4.25;;;21.20;98.70;;;;;;5070507;28;20064;-36
2023/06/19 01:32:29;;;;;;;6.28;4.55;;;21.20;98.70;;;;;;5070274;28;20021;-40
2023/06/19 01:34:57;;;;;;;4.90;4.30;;;21.20;98.80;;;;;;5070868;28;20016;-34
2023/06/19 01:37:28;;;;;;;4.30;3.90;;;21.20;98.80;;;;;;5070856;28;20028;-37
2023/06/19 01:39:57;;;;;;;4.60;4.10;;;21.20;98.80;;;;;;5073998;28;20052;-37
2023/06/19 01:42:23;;;;;;;6.28;4.82;;;21.20;98.80;;;;;;5073885;28;20028;-37
2023/06/19 01:44:49;;;;;;;4.60;4.05;;;21.20;98.80;;;;;;5073846;28;20028;-40
2023/06/19 01:47:19;;;;;;;4.25;3.70;;;21.20;99.20;;;;;;5073932;28;20028;-37
2023/06/19 01:49:46;;;;;;;5.47;4.32;;;21.20;98.90;;;;;;5073753;28;20483;-37
2023/06/19 01:52:11;;;;;;;4.75;4.18;;;21.20;98.90;;;;;;5074405;28;20055;-40
2023/06/19 01:54:37;;;;;;;5.47;3.85;;;21.20;99.00;;;;;;5074021;28;20056;-36
2023/06/19 01:57:03;;;;;;;5.05;4.18;;;21.20;99.00;;;;;;5074104;28;20027;-37
2023/06/19 01:59:28;;;;;;;4.88;3.85;;;21.20;99.00;;;;;;5073725;28;20089;-36
2023/06/19 02:01:54;;;;;;;6.07;4.22;;;21.20;99.00;;;;;;5073569;28;20446;-41
2023/06/19 02:04:20;;;;;;;4.53;3.78;;;21.20;99.00;;;;;;5073629;28;20025;-40
2023/06/19 02:06:45;;;;;;;4.35;3.95;;;21.20;99.00;;;;;;5073708;28;20402;-37
2023/06/19 02:09:11;;;;;;;5.97;3.58;;;21.20;99.00;;;;;;5073272;28;20059;-37
2023/06/19 02:11:36;;;;;;;5.35;4.03;;;21.20;99.00;;;;;;5073736;28;20491;-36
2023/06/19 02:14:02;;;;;;;4.28;3.50;;;21.20;99.00;;;;;;5073459;28;20580;-37
2023/06/19 02:16:28;;;;;;;6.65;4.35;;;21.20;99.00;;;;;;5073355;28;20062;-37
2023/06/19 02:18:53;;;;;;;4.75;3.88;;;21.20;99.00;;;;;;5073384;28;20185;-36
2023/06/19 02:21:19;;;;;;;4.50;3.60;;;21.20;99.00;;;;;;5074023;28;20034;-34
2023/06/19 02:23:44;;;;;;;4.13;3.72;;;21.20;99.10;;;;;;5073754;28;20463;-35
2023/06/19 02:26:10;;;;;;;4.15;3.75;;;21.20;99.10;;;;;;5073227;28;20520;-38
2023/06/19 02:28:36;;;;;;;4.40;3.97;;;21.20;99.10;;;;;;5072921;28;20931;-34
2023/06/19 02:31:01;;;;;;;4.15;3.50;;;21.20;99.10;;;;;;5073356;28;20031;-39
2023/06/19 02:33:28;;;;;;;4.20;3.58;;;21.20;99.10;;;;;;5073113;28;20028;-37
2023/06/19 02:35:58;;;;;;;5.28;3.53;;;21.20;99.10;;;;;;5074074;28;20309;-37
2023/06/19 02:38:25;;;;;;;3.67;3.38;;;21.20;99.10;;;;;;5073763;28;20020;-36
2023/06/19 02:40:51;;;;;;;5.25;3.63;;;21.20;99.10;;;;;;5072788;28;20467;-37
2023/06/19 02:43:17;;;;;;;3.75;3.28;;;21.20;99.10;;;;;;5073427;28;20040;-39
2023/06/19 02:45:42;;;;;;;4.35;3.50;;;21.20;99.10;;;;;;5073555;28;20043;-39
2023/06/19 02:48:08;;;;;;;3.80;3.40;;;21.20;99.10;;;;;;5073608;28;20047;-38
2023/06/19 02:50:34;;;;;;;4.00;3.60;;;21.20;99.20;;;;;;5073275;28;20243;-35
2023/06/19 02:52:59;;;;;;;4.10;3.40;;;21.20;99.10;;;;;;5073261;28;20568;-37
2023/06/19 02:55:25;;;;;;;4.38;3.42;;;21.20;99.10;;;;;;5072810;28;20020;-37
2023/06/19 02:57:51;;;;;;;6.95;3.70;;;21.20;99.10;;;;;;5072581;28;20060;-38
2023/06/19 03:00:17;;;;;;;3.83;3.50;;;21.20;99.20;;;;;;5072471;28;20055;-37
2023/06/19 03:02:44;;;;;;;3.83;3.33;;;21.20;99.20;;;;;;5073398;28;20016;-34
2023/06/19 03:05:14;;;;;;;4.65;3.45;;;21.20;99.20;;;;;;5072595;28;20430;-42
2023/06/19 03:07:40;;;;;;;3.63;3.20;;;21.20;99.30;;;;;;5072407;28;20422;-36
2023/06/19 03:10:06;;;;;;;4.70;3.83;;;21.20;99.30;;;;;;5071869;28;20031;-37
2023/06/19 03:12:31;;;;;;;4.35;3.22;;;21.20;99.30;;;;;;5072688;28;20021;-38
2023/06/19 03:14:57;;;;;;;4.45;3.55;;;21.20;99.30;;;;;;5072496;28;20021;-38
2023/06/19 03:17:22;;;;;;;4.18;3.45;;;21.20;99.40;;;;;;5072244;28;20409;-37
2023/06/19 03:19:48;;;;;;;3.50;3.20;;;21.20;99.40;;;;;;5072474;28;20025;-37
2023/06/19 03:22:13;;;;;;;3.40;3.10;;;21.20;99.40;;;;;;5072305;28;20031;-39
2023/06/19 03:24:39;;;;;;;3.50;3.20;;;21.20;99.50;;;;;;5071990;28;20462;-42
2023/06/19 03:27:05;;;;;;;4.20;3.20;;;21.20;99.50;;;;;;5072852;28;20025;-41
2023/06/19 03:29:31;;;;;;;3.53;3.20;;;21.20;99.50;;;;;;5071798;28;20060;-37
2023/06/19 03:31:56;;;;;;;4.18;3.55;;;21.20;99.60;;;;;;5071869;28;20073;-38
2023/06/19 03:34:22;;;;;;;3.83;3.38;;;21.10;99.60;;;;;;5072706;28;20506;-36
2023/06/19 03:36:47;;;;;;;3.42;3.13;;;21.10;99.70;;;;;;5071869;28;20032;-38
2023/06/19 03:39:13;;;;;;;3.40;3.10;;;21.20;99.80;;;;;;5071647;28;20566;-37
2023/06/19 03:41:39;;;;;;;3.78;3.15;;;21.20;99.90;;;;;;5071494;28;20433;-37
2023/06/19 03:44:05;;;;;;;3.20;2.90;;;21.10;99.90;;;;;;5071792;28;20024;-41
2023/06/19 03:46:30;;;;;;;3.40;3.00;;;21.10;99.90;;;;;;5071741;28;20028;-37
2023/06/19 03:48:56;;;;;;;5.45;3.42;;;21.20;99.90;;;;;;5071839;28;20028;-36
2023/06/19 03:51:22;;;;;;;4.35;3.28;;;21.20;99.90;;;;;;5071386;28;20024;-36
2023/06/19 03:53:47;;;;;;;3.67;3.20;;;21.10;99.90;;;;;;5071475;28;20024;-39
2023/06/19 03:56:13;;;;;;;4.00;3.20;;;21.10;99.90;;;;;;5071558;28;20107;-37
2023/06/19 03:58:38;;;;;;;3.97;3.03;;;21.10;99.90;;;;;;5071720;28;20033;-36
2023/06/19 04:01:05;;;;;;;3.83;3.17;;;21.10;99.90;;;;;;5071355;28;20050;-38
2023/06/19 04:03:31;;;;;;;4.05;3.03;;;21.10;99.90;;;;;;5072086;28;20052;-37
2023/06/19 04:05:56;;;;;;;3.75;3.08;;;21.10;99.90;;;;;;5072298;28;20514;-37
2023/06/19 04:08:22;;;;;;;3.28;2.95;;;21.10;99.90;;;;;;5071065;28;20627;-36
2023/06/19 04:10:48;;;;;;;3.35;3.00;;;21.10;99.90;;;;;;5071192;28;20025;-41
2023/06/19 04:13:13;;;;;;;3.65;3.30;;;21.10;99.90;;;;;;5071445;28;20024;-41
2023/06/19 04:15:39;;;;;;;3.13;2.80;;;21.10;99.90;;;;;;5071475;28;20012;-40
2023/06/19 04:18:04;;;;;;;3.75;3.00;;;21.10;99.90;;;;;;5072086;28;20043;-39
2023/06/19 04:20:30;;;;;;;4.28;3.08;;;21.10;99.90;;;;;;5070317;28;20028;-36
2023/06/19 04:22:56;;;;;;;4.18;3.10;;;21.10;99.90;;;;;;5071925;28;20486;-37
2023/06/19 04:25:22;;;;;;;2.90;2.65;;;21.10;99.90;;;;;;5072335;28;20032;-36
2023/06/19 04:27:47;;;;;;;3.50;2.92;;;21.10;99.90;;;;;;5071967;28;20029;-36
2023/06/19 04:30:13;;;;;;;3.60;2.90;;;21.10;99.90;;;;;;5072261;28;20028;-40
2023/06/19 04:32:41;;;;;;;4.20;2.88;;;21.10;99.90;;;;;;5071190;28;20085;-38
2023/06/19 04:35:08;;;;;;;3.13;2.83;;;21.10;99.90;;;;;;5071106;28;20032;-40
2023/06/19 04:37:34;;;;;;;3.80;3.20;;;21.10;99.90;;;;;;5070919;28;20058;-39
2023/06/19 04:39:59;;;;;;;3.30;3.00;;;21.10;99.90;;;;;;5071055;28;20053;-38
2023/06/19 04:42:26;;;;;;;2.83;2.45;;;21.10;99.90;;;;;;5071033;28;20020;-41
2023/06/19 04:44:52;;;;;;;3.15;2.88;;;21.10;99.90;;;;;;5071047;28;20021;-38
2023/06/19 04:47:19;;;;;;;5.57;2.15;;;21.10;99.90;;;;;;5071035;28;20047;-37
2023/06/19 04:49:45;;;;;;;4.25;2.65;;;21.10;99.90;;;;;;5071098;28;20033;-35
2023/06/19 04:52:11;;;;;;;5.93;2.60;;;21.00;99.90;;;;;;5070731;28;20040;-39
2023/06/19 04:54:37;;;;;;;4.93;3.15;;;20.90;99.90;;;;;;5071613;28;20391;-35
2023/06/19 04:57:03;;;;;;;3.38;2.78;;;20.90;99.90;;;;;;5071321;28;20027;-36
2023/06/19 04:59:30;;;;;;;5.30;2.90;;;20.90;99.90;;;;;;5071037;28;20025;-38
2023/06/19 05:01:57;;;;;;;4.82;2.70;;;20.90;99.90;;;;;;5071691;28;20032;-39
2023/06/19 05:04:23;;;;;;;6.97;2.78;;;20.90;99.90;;;;;;5071127;28;20029;-36
2023/06/19 05:06:50;;;;;;;2.97;2.63;;;21.00;99.90;;;;;;5071495;28;20040;-36
2023/06/19 05:09:16;;;;;;;4.60;3.00;;;21.00;99.90;;;;;;5071947;28;20029;-36
2023/06/19 05:11:41;;;;;;;3.65;2.60;;;21.00;99.90;;;;;;5071132;28;20514;-36
2023/06/19 05:14:07;;;;;;;3.35;2.88;;;21.00;99.90;;;;;;5074610;28;20138;-37
2023/06/19 05:16:34;;;;;;;4.45;2.40;;;21.10;99.90;;;;;;5075444;28;20437;-36
2023/06/19 05:19:00;;;;;;;3.10;2.65;;;21.10;99.90;;;;;;5074585;28;20036;-35
2023/06/19 05:21:26;;;;;;;3.75;2.47;;;21.10;99.90;;;;;;5074981;28;20061;-36
2023/06/19 05:23:52;;;;;;;3.75;2.50;;;21.10;99.90;;;;;;5074580;28;20114;-36
2023/06/19 05:26:22;;;;;;;4.15;2.70;;;21.10;99.90;;;;;;5074571;28;20025;-40
2023/06/19 05:28:50;;;;;;;5.00;3.00;;;21.10;99.90;;;;;;5074121;28;20025;-36
2023/06/19 05:31:17;;;;;;;3.72;2.47;;;21.10;99.90;;;;;;5074576;28;20016;-39
2023/06/19 05:33:42;;;;;;;5.10;2.45;;;21.10;99.90;;;;;;5074514;28;20016;-39
2023/06/19 05:36:08;;;;;;;2.90;2.53;;;21.10;99.90;;;;;;5074501;28;20498;-36
2023/06/19 05:38:33;;;;;;;3.92;2.60;;;21.10;99.90;;;;;;5074487;28;20441;-38
2023/06/19 05:40:59;;;;;;;3.00;2.45;;;21.10;99.90;;;;;;5073946;28;20029;-34
2023/06/19 05:43:26;;;;;;;3.25;2.08;;;21.10;99.90;;;;;;5074119;28;20032;-36
2023/06/19 05:45:52;;;;;;;2.78;2.22;;;21.10;99.90;;;;;;5074007;28;20074;-37
2023/06/19 05:48:18;;;;;;;4.38;2.42;;;21.10;99.90;;;;;;5074286;28;20017;-39
2023/06/19 05:50:44;;;;;;;5.18;2.47;;;21.10;99.90;;;;;;5073654;28;20513;-33
2023/06/19 05:53:09;;;;;;;3.22;2.40;;;21.10;99.90;;;;;;5074117;28;20618;-34
2023/06/19 05:55:35;;;;;;;3.33;2.50;;;21.10;99.90;;;;;;5074088;28;20482;-37
2023/06/19 05:58:02;;;;;;;4.43;2.35;;;21.10;99.90;;;;;;5074695;28;20399;-39
2023/06/19 06:00:29;;;;;;;2.88;2.30;;;21.10;99.90;;;;;;5073715;28;20025;-34
2023/06/19 06:03:02;;;;;;;2.60;2.38;;;21.10;99.90;;;;;;5073894;28;20024;-37
2023/06/19 06:05:28;;;;;;;2.70;2.30;;;21.10;99.90;;;;;;5073717;28;20502;-34
2023/06/19 06:07:54;;;;;;;2.58;2.20;;;21.10;99.90;;;;;;5073618;28;20032;-36
2023/06/19 06:10:25;;;;;;;3.03;2.60;;;21.10;99.90;;;;;;5073645;28;20028;-36
2023/06/19 06:12:50;;;;;;;3.03;2.70;;;21.10;99.90;;;;;;5073893;28;20434;-33
2023/06/19 06:15:17;;;;;;;3.08;2.38;;;21.10;99.90;;;;;;5073496;28;20024;-36
2023/06/19 06:17:42;;;;;;;4.63;2.20;;;21.10;99.90;;;;;;5073554;28;20024;-36
2023/06/19 06:20:12;;;;;;;4.07;2.50;;;21.10;99.90;;;;;;5073131;28;20074;-34
2023/06/19 06:22:38;;;;;;;2.47;2.28;;;21.10;99.90;;;;;;5073437;28;20052;-37
2023/06/19 06:25:04;;;;;;;3.75;2.42;;;21.10;99.90;;;;;;5073099;28;20016;-37
2023/06/19 06:27:30;;;;;;;2.67;2.38;;;21.10;99.90;;;;;;5073819;28;20029;-37
2023/06/19 06:29:55;;;;;;;2.92;2.38;;;21.10;99.90;;;;;;5072996;28;20111;-39
2023/06/19 06:32:21;;;;;;;3.47;2.20;;;21.10;99.90;;;;;;5073437;28;20078;-36
2023/06/19 06:34:47;;;;;;;2.38;2.13;;;21.20;99.90;;;;;;5073084;28;20021;-33
2023/06/19 06:37:13;;;;;;;2.22;2.03;;;21.10;99.90;;;;;;5073064;28;20100;-47
2023/06/19 06:39:38;;;;;;;3.55;2.50;;;21.10;99.90;;;;;;5072859;28;20111;-40
2023/06/19 06:42:04;;;;;;;2.65;2.10;;;21.10;99.90;;;;;;5073109;28;20112;-37
2023/06/19 06:44:30;;;;;;;3.15;2.38;;;21.10;99.90;;;;;;5072946;28;20047;-36
2023/06/19 06:46:55;;;;;;;2.70;2.42;;;21.10;99.90;;;;;;5073125;28;20036;-36
2023/06/19 06:49:22;;;;;;;4.53;2.40;;;21.20;99.90;;;;;;5072748;28;20033;-36
2023/06/19 06:51:47;;;;;;;2.53;2.20;;;21.20;99.90;;;;;;5072560;28;20020;-42
2023/06/19 06:54:13;;;;;;;3.97;2.22;;;21.20;99.90;;;;;;5073210;28;20020;-37
2023/06/19 06:56:39;;;;;;;3.15;2.20;;;21.20;99.90;;;;;;5072693;28;20528;-36
2023/06/19 06:59:04;;;;;;;2.97;2.30;;;21.20;99.90;;;;;;5073221;28;20474;-36
2023/06/19 07:01:30;;;;;;;2.22;2.00;;;21.20;99.90;;;;;;5072842;28;20493;-34
2023/06/19 07:03:56;;;;;;;2.45;2.05;;;21.20;99.90;;;;;;5072466;28;20031;-44
2023/06/19 07:06:21;;;;;;;4.22;2.45;;;21.20;99.90;;;;;;5072520;28;20033;-40
2023/06/19 07:08:47;;;;;;;3.17;2.20;;;21.20;99.90;;;;;;5073000;28;20101;-37
2023/06/19 07:11:14;;;;;;;2.78;2.28;;;21.20;99.90;;;;;;5072485;28;20028;-42
2023/06/19 07:13:41;;;;;;;4.80;2.30;;;21.20;99.90;;;;;;5072322;28;20021;-37
2023/06/19 07:16:07;;;;;;;3.63;2.00;;;21.20;99.90;;;;;;5072157;28;20070;-37
2023/06/19 07:18:34;;;;;;;3.20;2.30;;;21.20;99.90;;;;;;5072139;28;20490;-39
2023/06/19 07:21:01;;;;;;;3.15;2.20;;;21.20;99.90;;;;;;5072686;28;20074;-39
2023/06/19 07:23:27;;;;;;;5.10;2.55;;;21.20;99.90;;;;;;5072616;28;20016;-37
2023/06/19 07:25:52;;;;;;;2.60;2.40;;;21.20;99.90;;;;;;5072303;28;20027;-35
2023/06/19 07:28:18;;;;;;;2.25;2.05;;;21.20;99.90;;;;;;5072084;28;20479;-42
2023/06/19 07:30:45;;;;;;;3.00;2.10;;;21.20;99.90;;;;;;5071886;28;20028;-37
2023/06/19 07:33:10;;;;;;;2.83;2.22;;;21.30;99.90;;;;;;5072515;28;20031;-40
2023/06/19 07:35:36;;;;;;;3.35;2.38;;;21.30;99.90;;;;;;5071707;28;20111;-40
2023/06/19 07:38:01;;;;;;;2.90;2.00;;;21.20;99.90;;;;;;5072422;28;20078;-42
2023/06/19 07:40:27;;;;;;;2.45;2.10;;;21.30;99.90;;;;;;5072625;28;20482;-37
2023/06/19 07:42:53;;;;;;;2.45;2.00;;;21.30;99.90;;;;;;5072764;28;20032;-36
2023/06/19 07:45:18;;;;;;;2.35;1.95;;;21.30;99.90;;;;;;5072664;28;20530;-40
2023/06/19 07:47:53;;;;;;;2.80;2.22;;;21.30;99.90;;;;;;5072493;28;20024;-38
2023/06/19 07:50:18;;;;;;;2.42;2.00;;;21.30;99.90;;;;;;5071472;28;20082;-36
2023/06/19 07:52:44;;;;;;;2.58;2.13;;;21.30;99.90;;;;;;5071890;28;20036;-37
2023/06/19 07:55:10;;;;;;;3.15;2.22;;;21.30;99.90;;;;;;5071992;28;20096;-36
2023/06/19 07:57:35;;;;;;;2.88;1.90;;;21.30;99.90;;;;;;5071822;28;20021;-37
2023/06/19 08:00:07;;;;;;;2.33;2.08;;;21.30;99.90;;;;;;5071631;28;20082;-37
2023/06/19 08:02:32;;;;;;;2.20;2.00;;;21.30;99.90;;;;;;5071533;28;20032;-37
2023/06/19 08:04:58;;;;;;;3.15;1.98;;;21.30;99.90;;;;;;5071470;28;20032;-34
2023/06/19 08:07:23;;;;;;;2.20;1.88;;;21.30;99.90;;;;;;5071816;28;20063;-36
2023/06/19 08:09:49;;;;;;;2.75;2.20;;;21.30;99.90;;;;;;5071406;28;20037;-41
2023/06/19 08:12:15;;;;;;;2.63;2.15;;;21.30;99.90;;;;;;5071662;28;20055;-37
2023/06/19 08:14:40;;;;;;;2.83;2.17;;;21.30;99.90;;;;;;5071558;28;20116;-36
2023/06/19 08:17:06;;;;;;;2.00;1.80;;;21.30;99.90;;;;;;5071297;28;20044;-37
2023/06/19 08:19:32;;;;;;;2.63;1.85;;;21.30;99.90;;;;;;5071533;28;20035;-37
2023/06/19 08:21:57;;;;;;;2.22;2.03;;;21.30;99.90;;;;;;5071729;28;20032;-40
2023/06/19 08:24:23;;;;;;;2.17;1.90;;;21.30;99.90;;;;;;5071509;28;20103;-36
2023/06/19 08:26:50;;;;;;;2.28;1.83;;;21.30;99.90;;;;;;5071040;28;20021;-42
2023/06/19 08:29:17;;;;;;;2.10;1.90;;;21.30;99.90;;;;;;5071079;28;20032;-37
2023/06/19 08:31:43;;;;;;;2.42;2.00;;;21.30;99.90;;;;;;5071028;28;20021;-38
2023/06/19 08:34:09;;;;;;;2.15;1.95;;;21.30;99.90;;;;;;5071305;28;20517;-37
2023/06/19 08:36:36;;;;;;;2.40;1.95;;;21.30;99.90;;;;;;5071401;28;20046;-36
2023/06/19 08:39:02;;;;;;;2.03;1.83;;;21.30;99.90;;;;;;5071005;28;20033;-39
2023/06/19 08:41:28;;;;;;;2.15;1.70;;;21.30;99.90;;;;;;5070934;28;20029;-35
2023/06/19 08:43:54;;;;;;;2.08;1.88;;;21.30;99.90;;;;;;5071546;28;20024;-35
2023/06/19 08:46:20;;;;;;;2.17;1.90;;;21.30;99.90;;;;;;5071251;28;20498;-36
2023/06/19 08:48:46;;;;;;;2.03;1.67;;;21.30;99.90;;;;;;5075173;28;20064;-36
2023/06/19 08:51:13;;;;;;;2.60;1.92;;;21.30;99.90;;;;;;5075404;28;20048;-37
2023/06/19 08:53:46;;;;;;;2.13;1.83;;;21.40;99.90;;;;;;5075661;28;20383;-37
2023/06/19 08:56:12;;;;;;;2.28;1.92;;;21.40;99.90;;;;;;5075335;28;20012;-39
2023/06/19 08:58:38;;;;;;;1.95;1.77;;;21.40;99.90;;;;;;5074917;28;20082;-37
2023/06/19 09:01:03;;;;;;;1.73;1.63;;;21.40;99.90;;;;;;5074938;28;20024;-41
2023/06/19 09:03:29;;;;;;;2.38;1.38;;;21.40;99.90;;;;;;5074838;28;20020;-36
2023/06/19 09:05:55;;;;;;;2.15;1.70;;;21.40;99.90;;;;;;5075698;28;20032;-37
2023/06/19 09:08:22;;;;;;;1.92;1.73;;;21.40;99.90;;;;;;5074382;28;20064;-37
2023/06/19 09:10:58;;;;;;;1.98;1.75;;;21.40;99.90;;;;;;5075032;28;20458;-40
2023/06/19 09:13:24;;;;;;;1.98;1.60;;;21.40;99.90;;;;;;5075130;28;20040;-37
2023/06/19 09:16:02;;;;;;;2.47;1.95;;;21.40;99.90;;;;;;5074725;28;20013;-40
2023/06/19 09:18:42;;;;;;;2.45;1.73;;;21.40;99.90;;;;;;5074539;28;20095;-38
2023/06/19 09:21:18;;;;;;;2.20;1.88;;;21.40;99.90;;;;;;5072757;28;20024;-37
2023/06/19 09:23:45;;;;;;;2.03;1.80;;;21.40;99.90;;;;;;5074676;28;20042;-37
2023/06/19 09:26:15;;;;;;;2.05;1.63;;;21.40;99.90;;;;;;5074408;28;20033;-34
2023/06/19 09:28:44;;;;;;;2.08;1.70;;;21.40;99.90;;;;;;5074972;28;20056;-37
2023/06/19 09:31:10;;;;;;;2.08;1.88;;;21.40;99.90;;;;;;5074163;28;20159;-40
2023/06/19 09:33:37;;;;;;;2.00;1.70;;;21.40;99.90;;;;;;5074398;28;20028;-37
2023/06/19 09:36:05;;;;;;;1.85;1.67;;;21.40;99.90;;;;;;5074226;28;20077;-40
2023/06/19 09:38:38;;;;;;;1.60;1.48;;;21.40;99.90;;;;;;5074131;28;20046;-37
2023/06/19 09:41:05;;;;;;;1.50;1.40;;;21.40;99.90;;;;;;5074031;28;20024;-37
2023/06/19 09:43:42;;;;;;;2.28;1.50;;;21.50;99.90;;;;;;5074097;28;20024;-35
2023/06/19 09:46:09;;;;;;;1.70;1.50;;;21.50;99.90;;;;;;5073892;28;20032;-37
2023/06/19 09:48:40;;;;;;;1.60;1.50;;;21.50;99.90;;;;;;5073805;28;20396;-36
2023/06/19 09:51:20;;;;;;;1.95;1.75;;;21.50;99.90;;;;;;5073965;28;20031;-37
2023/06/19 09:53:48;;;;;;;1.70;1.35;;;21.50;99.90;;;;;;5074024;28;20026;-37
2023/06/19 09:56:15;;;;;;;1.77;1.45;;;21.50;99.90;;;;;;5074025;28;20021;-37
2023/06/19 09:58:43;;;;;;;2.47;1.63;;;21.50;99.90;;;;;;5072938;28;20036;-41
2023/06/19 10:01:09;;;;;;;1.70;1.60;;;21.50;99.90;;;;;;5073934;28;20033;-40
2023/06/19 10:03:35;;;;;;;1.90;1.45;;;21.50;99.90;;;;;;5073780;28;20024;-38
2023/06/19 10:06:02;;;;;;;1.65;1.48;;;21.50;99.90;;;;;;5074358;28;20028;-37
2023/06/19 10:08:40;;;;;;;2.38;1.65;;;21.60;99.90;;;;;;5073371;28;20024;-36
2023/06/19 10:11:06;;;;;;;1.88;1.50;;;21.50;99.90;;;;;;5074174;28;20101;-36
2023/06/19 10:13:38;;;;;;;1.67;1.40;;;21.50;99.90;;;;;;5074189;28;20107;-37
2023/06/19 10:16:04;;;;;;;1.55;1.40;;;21.50;99.90;;;;;;5073505;28;20032;-36
2023/06/19 10:18:32;;;;;;;1.65;1.40;;;21.60;99.90;;;;;;5073808;28;20020;-40
2023/06/19 10:20:59;;;;;;;1.52;1.38;;;21.50;99.90;;;;;;5074452;28;20021;-38
2023/06/19 10:23:28;;;;;;;1.70;1.50;;;21.60;99.90;;;;;;5073922;28;20031;-42
2023/06/19 10:25:53;;;;;;;1.42;1.25;;;21.60;99.90;;;;;;5073363;28;20024;-37
2023/06/19 10:28:46;;;;;;;1.50;1.38;;;21.60;99.90;;;;;;5073108;28;20024;-34
2023/06/19 10:31:11;;;;;;;1.70;1.48;;;21.60;99.90;;;;;;5073491;28;20036;-36
2023/06/19 10:33:40;;;;;;;1.88;1.45;;;21.60;99.90;;;;;;5073209;28;20028;-34
2023/06/19 10:36:22;;;;;;;1.65;1.30;;;21.60;99.90;;;;;;5073513;28;20028;-41
2023/06/19 10:38:49;;;;;;;2.05;1.67;;;21.60;99.90;;;;;;5072958;28;20043;-37
2023/06/19 10:41:22;;;;;;;1.40;1.20;;;21.60;99.90;;;;;;5072792;28;20025;-37
2023/06/19 10:44:02;;;;;;;1.80;1.60;;;21.60;99.90;;;;;;5073013;28;20036;-40
2023/06/19 10:46:35;;;;;;;2.28;1.48;;;21.60;99.90;;;;;;5072895;28;20032;-38
2023/06/19 10:49:04;;;;;;;1.20;1.10;;;21.60;99.90;;;;;;5072724;28;20055;-37
2023/06/19 10:51:40;;;;;;;1.90;1.60;;;21.60;99.90;;;;;;5072694;28;20510;-36
2023/06/19 10:54:06;;;;;;;1.63;1.40;;;21.60;99.90;;;;;;5072881;28;20051;-36
2023/06/19 10:56:32;;;;;;;1.70;1.42;;;21.60;99.90;;;;;;5073192;28;20499;-41
2023/06/19 10:59:09;;;;;;;1.40;1.30;;;21.60;99.90;;;;;;5072489;28;20024;-36
2023/06/19 11:01:44;;;;;;;1.95;1.63;;;21.60;99.90;;;;;;5072770;28;20411;-37
2023/06/19 11:04:11;;;;;;;2.95;1.83;;;21.60;99.90;;;;;;5072796;28;20090;-35
2023/06/19 11:06:38;;;;;;;1.73;1.50;;;21.70;99.90;;;;;;5072678;28;20482;-40
2023/06/19 11:09:08;;;;;;;1.35;1.25;;;21.70;99.90;;;;;;5072717;28;20029;-35
2023/06/19 11:11:47;;;;;;;1.88;1.42;;;21.70;99.90;;;;;;5071121;28;20020;-41
2023/06/19 11:14:15;;;;;;;1.98;1.40;;;21.70;99.90;;;;;;5072332;28;20028;-37
2023/06/19 11:16:43;;;;;;;1.70;1.33;;;21.70;99.90;;;;;;5072331;28;20514;-35
2023/06/19 11:19:14;;;;;;;1.85;1.60;;;21.70;99.90;;;;;;5072165;28;20028;-37
2023/06/19 11:21:40;;;;;;;2.70;1.55;;;21.70;99.90;;;;;;5076605;28;20069;-37
2023/06/19 11:24:11;;;;;;;2.08;1.60;;;21.70;99.90;;;;;;5072508;28;20025;-40
2023/06/19 11:26:50;;;;;;;1.70;1.60;;;21.70;99.90;;;;;;5072295;28;20033;-35
2023/06/19 11:29:20;;;;;;;1.67;1.52;;;21.70;99.90;;;;;;5072254;28;20056;-37
2023/06/19 11:31:47;;;;;;;1.70;1.60;;;21.70;99.90;;;;;;5071849;28;20025;-37
2023/06/19 11:34:13;;;;;;;1.48;1.38;;;21.70;99.90;;;;;;5071863;28;20025;-40
2023/06/19 11:36:40;;;;;;;1.90;1.70;;;21.70;99.90;;;;;;5072021;28;20073;-35
2023/06/19 11:39:13;;;;;;;1.70;1.60;;;21.70;99.90;;;;;;5072081;28;20043;-36
2023/06/19 11:41:40;;;;;;;1.95;1.58;;;21.80;99.90;;;;;;5072081;28;20103;-34
2023/06/19 11:44:08;;;;;;;2.15;1.55;;;21.70;99.90;;;;;;5071846;28;20039;-37
2023/06/19 11:46:34;;;;;;;1.90;1.48;;;21.70;99.90;;;;;;5071858;28;20043;-37
2023/06/19 11:49:14;;;;;;;1.83;1.55;;;21.70;99.90;;;;;;5071473;28;20480;-36
2023/06/19 11:51:40;;;;;;;3.30;1.60;;;21.70;99.90;;;;;;5071519;28;20040;-41
2023/06/19 11:54:08;;;;;;;1.70;1.60;;;21.80;99.90;;;;;;5071693;28;20017;-34
2023/06/19 11:56:35;;;;;;;1.88;1.52;;;21.70;99.90;;;;;;5071611;28;20475;-40
2023/06/19 11:59:01;;;;;;;1.90;1.60;;;21.70;99.90;;;;;;5071465;28;20108;-34
2023/06/19 12:01:27;;;;;;;1.48;1.38;;;21.70;99.90;;;;;;5071299;28;20032;-37
2023/06/19 12:03:53;;;;;;;1.90;1.52;;;21.70;99.90;;;;;;5071725;28;20028;-37
2023/06/19 12:06:18;;;;;;;2.70;1.60;;;21.70;99.90;;;;;;5071652;28;20020;-40
2023/06/19 12:08:44;;;;;;;1.75;1.65;;;21.80;99.90;;;;;;5071492;28;20032;-37
2023/06/19 12:11:10;;;;;;;1.60;1.50;;;21.70;99.90;;;;;;5071547;28;20076;-35
2023/06/19 12:13:36;;;;;;;1.85;1.60;;;21.70;99.90;;;;;;5071651;28;20031;-37
2023/06/19 12:16:03;;;;;;;1.95;1.55;;;21.70;99.90;;;;;;5071734;28;20031;-38
2023/06/19 12:18:29;;;;;;;1.48;1.38;;;21.70;99.90;;;;;;5071648;28;20024;-35
2023/06/19 12:20:55;;;;;;;1.70;1.60;;;21.80;99.90;;;;;;5071862;28;20560;-37
2023/06/19 12:23:20;;;;;;;2.05;1.60;;;21.80;99.90;;;;;;5070986;28;20025;-38
2023/06/19 12:25:46;;;;;;;1.80;1.65;;;21.80;99.90;;;;;;5071316;28;20550;-39
2023/06/19 12:28:18;;;;;;;2.47;1.42;;;21.70;99.90;;;;;;5071077;28;20032;-38
2023/06/19 12:30:51;;;;;;;2.15;1.60;;;21.80;99.90;;;;;;5071185;28;20028;-37
2023/06/19 12:33:17;;;;;;;2.00;1.70;;;21.70;99.90;;;;;;5069967;28;20479;-36
2023/06/19 12:35:44;;;;;;;2.88;1.73;;;21.70;99.90;;;;;;5071201;28;20032;-37
2023/06/19 12:38:10;;;;;;;1.65;1.40;;;21.70;99.90;;;;;;5071182;28;20035;-36
2023/06/19 12:40:37;;;;;;;2.05;1.75;;;21.70;99.90;;;;;;5071179;28;20391;-36
2023/06/19 12:43:03;;;;;;;2.35;1.73;;;21.70;99.90;;;;;;5071354;28;20032;-38
2023/06/19 12:45:28;;;;;;;2.25;1.73;;;21.70;99.90;;;;;;5071127;28;20024;-36
2023/06/19 12:47:54;;;;;;;1.83;1.58;;;21.70;99.90;;;;;;5071473;28;20035;-40